首页
METAR-TAF:

METAR-TAF

机场 :

McMinnville, 俄勒冈州, 美国

纬度: 45-11-46N, 经度: 123-07-56W, 海拔: 48米

当前天气观测

该预报发布于37分钟前的10:53 UTC
风速24节,风向,有时为32节阵风
温度 11°C
湿度 87%
气压 1005 hPa
能見度: 11.3公里
少量云层高于3400英尺
阴天层高于6500英尺
小雨

METAR: KMMV 181053Z AUTO 18024G32KT 7SM -RA FEW034 OVC065 11/09 A2967 RMK AO2 PK WND 18036/1035 PRESFR SLP047 P0009 T01060094

时间: 03:30 (11:30 UTC)


TAF: 丢失

超过4000个机场的气象观测和天气预报(METAR&TAF报告)。

可查询的气象台以黄色和红色小点在地图上表示。

将鼠标移到小点上方,可查看气象台名称。

然后点击查看天气观测和预报。

如需切换地图:点击带黑十字的绿色按钮放大地图;点击带横线的绿色按钮缩小地图;或者点击绿色箭头查看邻近地区的地图。


METAR-TAF: